Portada
METAR-TAF:

METAR-TAF

Aeroports :

Ithaca, Nova York, Estats Units d'Amèrica

latitud: 42-29N, longitud: 076-27W, altitud: 335 m

Observació

L'informe es va fer fa 1 hora i 3 minuts, a les 11:56 UTC
Vent calma
Temperatura 1°C
Humitat 100%
Pressió 1007 hPa
Visibilitat: 16.1 km
Cel ennuvolat a una alçada de 600 ft
Cel cobert a una alçada de 2300 ft

METAR: KITH 191156Z 00000KT 10SM BKN006 OVC023 01/01 A2975 RMK AO2 SLP083 T00060006 10011 21022 53013

Hora: 07:59 (12:59 UTC)

Pronòstic

L'informe es va fer fa 1 hora i 21 minuts, a les 11:38 UTC
Pronòstic vàlid del 19 a les 12 UTC al 20 a les 12 UTC
Vent 5 kt del Nord-Oest
Visibilitat: 10 km
Cel ennuvolat a una alçada de 2500 ft
Temporalment
l' 19 a les 12 UTC al 19 a les 15 UTC
Cel ennuvolat a una alçada de 1800 ft

TAF: KITH 191138Z 1912/2012 32005KT P6SM BKN025 TEMPO 1912/1915 BKN018

Observacions i pronòstics meteorològics de més de 4000 aeroports (METAR i TAF).

Les estacions disponibles són els punts grocs i vermells al mapa.

Posi el ratolí al punt desitjat per veure el nom de l'estació.

Feu clic per veure les observacions i els pronòstics meteorològics.

Per canviar el mapa: feu clic els botons verds amb una creu de color negre per apropar; al botó verd amb un guió per allunyar la imatge; o en les fletxes verdes per a mapes adjacents.


METAR-TAF: